sensor_id;sensor_type;location;lat;lon;timestamp;pressure;altitude;pressure_sealevel;temperature;humidity
34177;BME280;20450;49.074;9.158;2023-01-30T00:00:58;100557.53;;;-0.34;79.21
34177;BME280;20450;49.074;9.158;2023-01-30T00:03:27;100549.00;;;-0.38;79.77
34177;BME280;20450;49.074;9.158;2023-01-30T00:05:57;100553.44;;;-0.38;79.46
34177;BME280;20450;49.074;9.158;2023-01-30T00:08:25;100548.06;;;-0.48;79.33
34177;BME280;20450;49.074;9.158;2023-01-30T00:10:53;100547.19;;;-0.48;79.50
34177;BME280;20450;49.074;9.158;2023-01-30T00:13:20;100541.78;;;-0.47;80.05
34177;BME280;20450;49.074;9.158;2023-01-30T00:15:47;100546.09;;;-0.46;80.11
34177;BME280;20450;49.074;9.158;2023-01-30T00:18:15;100526.34;;;-0.53;79.76
34177;BME280;20450;49.074;9.158;2023-01-30T00:20:44;100526.94;;;-0.49;79.70
34177;BME280;20450;49.074;9.158;2023-01-30T00:23:14;100528.75;;;-0.50;79.78
34177;BME280;20450;49.074;9.158;2023-01-30T00:25:44;100528.75;;;-0.50;79.67
34177;BME280;20450;49.074;9.158;2023-01-30T00:28:11;100535.03;;;-0.51;80.24
34177;BME280;20450;49.074;9.158;2023-01-30T00:30:38;100541.16;;;-0.50;79.71
34177;BME280;20450;49.074;9.158;2023-01-30T00:33:05;100548.31;;;-0.51;79.81
34177;BME280;20450;49.074;9.158;2023-01-30T00:35:32;100559.16;;;-0.54;80.10
34177;BME280;20450;49.074;9.158;2023-01-30T00:38:00;100578.06;;;-0.47;79.76
34177;BME280;20450;49.074;9.158;2023-01-30T00:40:28;100586.75;;;-0.45;80.06
34177;BME280;20450;49.074;9.158;2023-01-30T00:42:55;100584.56;;;-0.40;79.92
34177;BME280;20450;49.074;9.158;2023-01-30T00:45:22;100604.25;;;-0.32;79.88
34177;BME280;20450;49.074;9.158;2023-01-30T00:47:49;100600.47;;;-0.29;80.20
34177;BME280;20450;49.074;9.158;2023-01-30T00:50:17;100599.50;;;-0.28;80.43
34177;BME280;20450;49.074;9.158;2023-01-30T00:52:45;100601.34;;;-0.29;79.89
34177;BME280;20450;49.074;9.158;2023-01-30T00:55:13;100588.31;;;-0.32;79.87
34177;BME280;20450;49.074;9.158;2023-01-30T00:57:40;100588.56;;;-0.35;79.68
34177;BME280;20450;49.074;9.158;2023-01-30T01:00:09;100589.13;;;-0.31;79.88
34177;BME280;20450;49.074;9.158;2023-01-30T01:02:39;100579.25;;;-0.29;80.08
34177;BME280;20450;49.074;9.158;2023-01-30T01:05:08;100583.38;;;-0.36;79.55
34177;BME280;20450;49.074;9.158;2023-01-30T01:07:36;100586.03;;;-0.36;79.44
34177;BME280;20450;49.074;9.158;2023-01-30T01:10:04;100599.63;;;-0.30;79.29
34177;BME280;20450;49.074;9.158;2023-01-30T01:12:33;100609.31;;;-0.29;79.72
34177;BME280;20450;49.074;9.158;2023-01-30T01:15:01;100595.53;;;-0.34;80.23
34177;BME280;20450;49.074;9.158;2023-01-30T01:17:29;100574.06;;;-0.31;80.91
34177;BME280;20450;49.074;9.158;2023-01-30T01:19:59;100576.97;;;-0.23;80.61
34177;BME280;20450;49.074;9.158;2023-01-30T01:22:29;100588.16;;;-0.19;80.54
34177;BME280;20450;49.074;9.158;2023-01-30T01:24:56;100599.25;;;-0.14;80.35
34177;BME280;20450;49.074;9.158;2023-01-30T01:27:24;100592.97;;;-0.13;80.61
34177;BME280;20450;49.074;9.158;2023-01-30T01:29:53;100590.91;;;-0.10;80.26
34177;BME280;20450;49.074;9.158;2023-01-30T01:32:21;100584.50;;;-0.07;80.73
34177;BME280;20450;49.074;9.158;2023-01-30T01:34:49;100586.09;;;-0.05;80.47
34177;BME280;20450;49.074;9.158;2023-01-30T01:37:17;100581.34;;;-0.01;80.36
34177;BME280;20450;49.074;9.158;2023-01-30T01:39:47;100570.16;;;-0.05;80.68
34177;BME280;20450;49.074;9.158;2023-01-30T01:42:15;100565.22;;;-0.09;80.73
34177;BME280;20450;49.074;9.158;2023-01-30T01:45:14;100568.19;;;-0.03;81.12
34177;BME280;20450;49.074;9.158;2023-01-30T01:47:53;100565.41;;;-0.01;80.38
34177;BME280;20450;49.074;9.158;2023-01-30T01:50:27;100556.66;;;-0.13;81.08
34177;BME280;20450;49.074;9.158;2023-01-30T01:53:03;100546.53;;;-0.19;81.63
34177;BME280;20450;49.074;9.158;2023-01-30T01:55:31;100545.00;;;-0.32;82.18
34177;BME280;20450;49.074;9.158;2023-01-30T01:58:02;100530.06;;;-0.44;82.36
34177;BME280;20450;49.074;9.158;2023-01-30T02:00:38;100514.38;;;-0.36;82.22
34177;BME280;20450;49.074;9.158;2023-01-30T02:03:08;100501.16;;;-0.27;82.19
34177;BME280;20450;49.074;9.158;2023-01-30T02:05:48;100490.41;;;-0.14;81.90
34177;BME280;20450;49.074;9.158;2023-01-30T02:08:21;100486.13;;;-0.06;81.01
34177;BME280;20450;49.074;9.158;2023-01-30T02:10:58;100490.56;;;0.05;80.77
34177;BME280;20450;49.074;9.158;2023-01-30T02:13:30;100483.38;;;0.17;79.84
34177;BME280;20450;49.074;9.158;2023-01-30T02:16:01;100477.09;;;0.18;80.14
34177;BME280;20450;49.074;9.158;2023-01-30T02:18:33;100472.22;;;0.23;79.65
34177;BME280;20450;49.074;9.158;2023-01-30T02:21:33;100473.16;;;0.33;79.41
34177;BME280;20450;49.074;9.158;2023-01-30T02:24:38;100467.97;;;0.31;79.59
34177;BME280;20450;49.074;9.158;2023-01-30T02:34:10;100445.34;;;0.37;79.47
34177;BME280;20450;49.074;9.158;2023-01-30T02:37:00;100453.66;;;0.43;79.04
34177;BME280;20450;49.074;9.158;2023-01-30T02:39:50;100447.78;;;0.49;78.41
34177;BME280;20450;49.074;9.158;2023-01-30T02:42:31;100442.59;;;0.48;78.42
34177;BME280;20450;49.074;9.158;2023-01-30T02:45:11;100438.44;;;0.55;78.39
34177;BME280;20450;49.074;9.158;2023-01-30T02:47:56;100429.81;;;0.62;77.85
34177;BME280;20450;49.074;9.158;2023-01-30T02:50:31;100423.50;;;0.63;77.30
34177;BME280;20450;49.074;9.158;2023-01-30T02:53:04;100404.50;;;0.68;77.18
34177;BME280;20450;49.074;9.158;2023-01-30T02:55:39;100389.63;;;0.56;77.48
34177;BME280;20450;49.074;9.158;2023-01-30T02:58:15;100388.38;;;0.60;77.50
34177;BME280;20450;49.074;9.158;2023-01-30T03:01:09;100379.53;;;0.50;78.48
34177;BME280;20450;49.074;9.158;2023-01-30T03:04:36;100371.81;;;0.47;78.67
34177;BME280;20450;49.074;9.158;2023-01-30T03:07:26;100350.56;;;0.47;78.77
34177;BME280;20450;49.074;9.158;2023-01-30T03:10:17;100342.97;;;0.33;79.34
34177;BME280;20450;49.074;9.158;2023-01-30T03:13:09;100344.50;;;0.35;78.56
34177;BME280;20450;49.074;9.158;2023-01-30T03:15:49;100335.13;;;0.31;78.95
34177;BME280;20450;49.074;9.158;2023-01-30T03:18:21;100323.66;;;0.31;78.59
34177;BME280;20450;49.074;9.158;2023-01-30T03:20:50;100339.13;;;0.26;79.66
34177;BME280;20450;49.074;9.158;2023-01-30T03:23:18;100338.25;;;0.16;79.37
34177;BME280;20450;49.074;9.158;2023-01-30T03:25:51;100351.19;;;0.30;79.59
34177;BME280;20450;49.074;9.158;2023-01-30T03:28:19;100368.81;;;0.31;80.16
34177;BME280;20450;49.074;9.158;2023-01-30T03:30:56;100374.25;;;0.29;79.71
34177;BME280;20450;49.074;9.158;2023-01-30T03:33:23;100371.66;;;0.39;79.63
34177;BME280;20450;49.074;9.158;2023-01-30T03:35:55;100369.69;;;0.41;79.63
34177;BME280;20450;49.074;9.158;2023-01-30T03:38:22;100371.94;;;0.36;79.26
34177;BME280;20450;49.074;9.158;2023-01-30T03:40:49;100364.66;;;0.38;78.96
34177;BME280;20450;49.074;9.158;2023-01-30T03:43:16;100365.63;;;0.37;79.09
34177;BME280;20450;49.074;9.158;2023-01-30T03:45:43;100360.84;;;0.31;78.75
34177;BME280;20450;49.074;9.158;2023-01-30T03:48:10;100356.66;;;0.28;79.00
34177;BME280;20450;49.074;9.158;2023-01-30T03:50:37;100372.88;;;0.35;78.18
34177;BME280;20450;49.074;9.158;2023-01-30T03:53:06;100392.41;;;0.45;77.90
34177;BME280;20450;49.074;9.158;2023-01-30T03:55:33;100392.69;;;0.51;77.69
34177;BME280;20450;49.074;9.158;2023-01-30T03:58:01;100400.06;;;0.48;77.46
34177;BME280;20450;49.074;9.158;2023-01-30T04:00:31;100402.81;;;0.37;76.73
34177;BME280;20450;49.074;9.158;2023-01-30T04:02:58;100388.69;;;0.36;76.82
34177;BME280;20450;49.074;9.158;2023-01-30T04:05:26;100395.56;;;0.39;76.92
34177;BME280;20450;49.074;9.158;2023-01-30T04:08:00;100403.16;;;0.43;76.88
34177;BME280;20450;49.074;9.158;2023-01-30T04:10:28;100406.69;;;0.53;76.71
34177;BME280;20450;49.074;9.158;2023-01-30T04:12:55;100402.16;;;0.44;76.26
34177;BME280;20450;49.074;9.158;2023-01-30T04:15:22;100404.06;;;0.33;76.92
34177;BME280;20450;49.074;9.158;2023-01-30T04:17:59;100386.16;;;0.35;76.23
34177;BME280;20450;49.074;9.158;2023-01-30T04:20:39;100392.19;;;0.37;76.91
34177;BME280;20450;49.074;9.158;2023-01-30T04:23:07;100386.63;;;0.40;76.54
34177;BME280;20450;49.074;9.158;2023-01-30T04:25:35;100398.84;;;0.52;76.55
34177;BME280;20450;49.074;9.158;2023-01-30T04:28:06;100402.50;;;0.60;76.07
34177;BME280;20450;49.074;9.158;2023-01-30T04:30:36;100392.09;;;0.48;75.63
34177;BME280;20450;49.074;9.158;2023-01-30T04:33:22;100387.22;;;0.43;76.43
34177;BME280;20450;49.074;9.158;2023-01-30T04:35:52;100379.75;;;0.37;76.67
34177;BME280;20450;49.074;9.158;2023-01-30T04:38:20;100381.97;;;0.32;76.04
34177;BME280;20450;49.074;9.158;2023-01-30T04:40:50;100375.81;;;0.32;76.54
34177;BME280;20450;49.074;9.158;2023-01-30T04:43:19;100372.31;;;0.31;76.56
34177;BME280;20450;49.074;9.158;2023-01-30T04:46:14;100381.19;;;0.41;76.31
34177;BME280;20450;49.074;9.158;2023-01-30T04:48:41;100376.31;;;0.46;76.41
34177;BME280;20450;49.074;9.158;2023-01-30T04:51:08;100367.50;;;0.46;76.26
34177;BME280;20450;49.074;9.158;2023-01-30T04:53:37;100385.38;;;0.44;76.13
34177;BME280;20450;49.074;9.158;2023-01-30T04:56:06;100378.69;;;0.49;76.59
34177;BME280;20450;49.074;9.158;2023-01-30T04:58:33;100380.66;;;0.47;76.86
34177;BME280;20450;49.074;9.158;2023-01-30T05:01:14;100366.16;;;0.61;76.81
34177;BME280;20450;49.074;9.158;2023-01-30T05:03:48;100359.94;;;0.51;76.79
34177;BME280;20450;49.074;9.158;2023-01-30T05:06:16;100353.75;;;0.41;77.41
34177;BME280;20450;49.074;9.158;2023-01-30T05:08:43;100354.88;;;0.48;78.32
34177;BME280;20450;49.074;9.158;2023-01-30T05:11:13;100362.25;;;0.65;78.38
34177;BME280;20450;49.074;9.158;2023-01-30T05:13:40;100363.09;;;0.75;78.19
34177;BME280;20450;49.074;9.158;2023-01-30T05:16:07;100354.06;;;0.87;78.19
34177;BME280;20450;49.074;9.158;2023-01-30T05:18:34;100353.22;;;0.96;77.90
34177;BME280;20450;49.074;9.158;2023-01-30T05:21:03;100352.56;;;1.03;77.67
34177;BME280;20450;49.074;9.158;2023-01-30T05:23:37;100349.75;;;1.05;77.54
34177;BME280;20450;49.074;9.158;2023-01-30T05:26:11;100336.25;;;0.68;78.22
34177;BME280;20450;49.074;9.158;2023-01-30T05:28:40;100319.94;;;0.43;79.29
34177;BME280;20450;49.074;9.158;2023-01-30T05:31:09;100309.31;;;0.13;80.95
34177;BME280;20450;49.074;9.158;2023-01-30T05:33:41;100304.53;;;0.07;82.23
34177;BME280;20450;49.074;9.158;2023-01-30T05:36:13;100288.13;;;0.01;82.88
34177;BME280;20450;49.074;9.158;2023-01-30T05:38:41;100289.13;;;0.00;82.67
34177;BME280;20450;49.074;9.158;2023-01-30T05:41:10;100279.50;;;0.09;83.25
34177;BME280;20450;49.074;9.158;2023-01-30T05:43:40;100284.13;;;0.07;82.68
34177;BME280;20450;49.074;9.158;2023-01-30T05:46:12;100270.25;;;0.03;82.40
34177;BME280;20450;49.074;9.158;2023-01-30T05:48:39;100277.69;;;0.10;81.72
34177;BME280;20450;49.074;9.158;2023-01-30T05:51:13;100283.84;;;0.10;81.63
34177;BME280;20450;49.074;9.158;2023-01-30T05:53:42;100276.72;;;0.11;81.83
34177;BME280;20450;49.074;9.158;2023-01-30T05:56:08;100284.00;;;0.18;81.26
34177;BME280;20450;49.074;9.158;2023-01-30T05:58:36;100292.75;;;0.30;81.34
34177;BME280;20450;49.074;9.158;2023-01-30T06:01:05;100296.63;;;0.26;80.42
34177;BME280;20450;49.074;9.158;2023-01-30T06:03:34;100298.63;;;0.33;79.49
34177;BME280;20450;49.074;9.158;2023-01-30T06:06:03;100298.47;;;0.35;79.32
34177;BME280;20450;49.074;9.158;2023-01-30T06:08:32;100298.81;;;0.41;79.52
34177;BME280;20450;49.074;9.158;2023-01-30T06:10:59;100304.25;;;0.49;78.61
34177;BME280;20450;49.074;9.158;2023-01-30T06:13:29;100301.34;;;0.52;78.31
34177;BME280;20450;49.074;9.158;2023-01-30T06:16:00;100299.13;;;0.57;78.84
34177;BME280;20450;49.074;9.158;2023-01-30T06:18:42;100296.06;;;0.62;78.32
34177;BME280;20450;49.074;9.158;2023-01-30T06:21:27;100294.53;;;0.69;78.02
34177;BME280;20450;49.074;9.158;2023-01-30T06:23:54;100283.63;;;0.72;77.87
34177;BME280;20450;49.074;9.158;2023-01-30T06:26:20;100283.94;;;0.78;77.25
34177;BME280;20450;49.074;9.158;2023-01-30T06:28:47;100295.41;;;0.79;77.34
34177;BME280;20450;49.074;9.158;2023-01-30T06:31:14;100294.00;;;0.84;77.11
34177;BME280;20450;49.074;9.158;2023-01-30T06:33:43;100299.31;;;0.94;76.65
34177;BME280;20450;49.074;9.158;2023-01-30T06:36:10;100311.38;;;0.98;76.44
34177;BME280;20450;49.074;9.158;2023-01-30T06:38:36;100308.72;;;1.07;76.03
34177;BME280;20450;49.074;9.158;2023-01-30T06:41:04;100303.84;;;1.12;75.90
34177;BME280;20450;49.074;9.158;2023-01-30T06:43:31;100299.94;;;1.07;76.43
34177;BME280;20450;49.074;9.158;2023-01-30T06:45:58;100306.34;;;1.04;76.83
34177;BME280;20450;49.074;9.158;2023-01-30T06:48:25;100301.31;;;0.92;77.56
34177;BME280;20450;49.074;9.158;2023-01-30T06:50:54;100295.69;;;0.85;77.68
34177;BME280;20450;49.074;9.158;2023-01-30T06:53:21;100302.00;;;0.84;77.74
34177;BME280;20450;49.074;9.158;2023-01-30T06:55:48;100308.03;;;0.86;78.02
34177;BME280;20450;49.074;9.158;2023-01-30T06:58:15;100302.56;;;0.97;78.26
34177;BME280;20450;49.074;9.158;2023-01-30T07:00:42;100304.84;;;1.11;77.84
34177;BME280;20450;49.074;9.158;2023-01-30T07:03:09;100310.28;;;1.19;78.07
34177;BME280;20450;49.074;9.158;2023-01-30T07:05:37;100313.34;;;1.15;78.15
34177;BME280;20450;49.074;9.158;2023-01-30T07:08:06;100333.66;;;1.25;77.88
34177;BME280;20450;49.074;9.158;2023-01-30T07:10:33;100327.38;;;1.36;77.91
34177;BME280;20450;49.074;9.158;2023-01-30T07:13:00;100318.97;;;1.40;78.11
34177;BME280;20450;49.074;9.158;2023-01-30T07:15:27;100333.81;;;1.43;78.32
34177;BME280;20450;49.074;9.158;2023-01-30T07:17:54;100323.59;;;1.48;78.55
34177;BME280;20450;49.074;9.158;2023-01-30T07:20:23;100322.19;;;1.53;77.97
34177;BME280;20450;49.074;9.158;2023-01-30T07:22:51;100312.53;;;1.52;78.05
34177;BME280;20450;49.074;9.158;2023-01-30T07:25:22;100308.03;;;1.62;78.24
34177;BME280;20450;49.074;9.158;2023-01-30T07:27:51;100311.09;;;1.67;78.02
34177;BME280;20450;49.074;9.158;2023-01-30T07:30:18;100322.88;;;1.74;78.20
34177;BME280;20450;49.074;9.158;2023-01-30T07:32:48;100324.13;;;1.80;77.74
34177;BME280;20450;49.074;9.158;2023-01-30T07:35:16;100336.56;;;1.89;77.77
34177;BME280;20450;49.074;9.158;2023-01-30T07:37:44;100337.13;;;1.92;77.38
34177;BME280;20450;49.074;9.158;2023-01-30T07:40:12;100335.44;;;2.01;77.46
34177;BME280;20450;49.074;9.158;2023-01-30T07:42:41;100331.38;;;2.07;77.08
34177;BME280;20450;49.074;9.158;2023-01-30T07:45:09;100321.38;;;2.08;77.04
34177;BME280;20450;49.074;9.158;2023-01-30T07:47:36;100322.38;;;2.17;77.80
34177;BME280;20450;49.074;9.158;2023-01-30T07:50:04;100316.75;;;2.20;77.27
34177;BME280;20450;49.074;9.158;2023-01-30T07:52:32;100293.47;;;2.13;77.19
34177;BME280;20450;49.074;9.158;2023-01-30T07:54:59;100274.28;;;2.09;77.32
34177;BME280;20450;49.074;9.158;2023-01-30T07:57:28;100236.56;;;2.04;77.93
34177;BME280;20450;49.074;9.158;2023-01-30T07:59:57;100235.03;;;2.01;78.31
34177;BME280;20450;49.074;9.158;2023-01-30T08:02:24;100244.03;;;2.00;78.80
34177;BME280;20450;49.074;9.158;2023-01-30T08:04:51;100251.44;;;2.07;79.21
34177;BME280;20450;49.074;9.158;2023-01-30T08:07:17;100267.50;;;2.15;79.80
34177;BME280;20450;49.074;9.158;2023-01-30T08:09:44;100260.06;;;2.18;80.22
34177;BME280;20450;49.074;9.158;2023-01-30T08:12:11;100245.72;;;2.29;80.41
34177;BME280;20450;49.074;9.158;2023-01-30T08:14:38;100208.97;;;2.32;80.06
34177;BME280;20450;49.074;9.158;2023-01-30T08:17:06;100231.84;;;2.25;79.97
34177;BME280;20450;49.074;9.158;2023-01-30T08:19:33;100229.59;;;2.30;80.01
34177;BME280;20450;49.074;9.158;2023-01-30T08:22:00;100210.31;;;2.36;79.79
34177;BME280;20450;49.074;9.158;2023-01-30T08:24:26;100221.22;;;2.43;79.59
34177;BME280;20450;49.074;9.158;2023-01-30T08:26:53;100212.09;;;2.45;79.47
34177;BME280;20450;49.074;9.158;2023-01-30T08:29:20;100240.69;;;2.53;79.37
34177;BME280;20450;49.074;9.158;2023-01-30T08:31:48;100233.34;;;2.55;79.73
34177;BME280;20450;49.074;9.158;2023-01-30T08:34:16;100247.63;;;2.63;79.02
34177;BME280;20450;49.074;9.158;2023-01-30T08:36:43;100221.03;;;2.71;79.14
34177;BME280;20450;49.074;9.158;2023-01-30T08:39:10;100234.78;;;2.76;78.94
34177;BME280;20450;49.074;9.158;2023-01-30T08:41:36;100235.97;;;2.82;78.52
34177;BME280;20450;49.074;9.158;2023-01-30T08:44:04;100222.88;;;2.88;78.38
34177;BME280;20450;49.074;9.158;2023-01-30T08:46:31;100231.25;;;2.93;78.37
34177;BME280;20450;49.074;9.158;2023-01-30T08:48:58;100212.59;;;2.93;78.60
34177;BME280;20450;49.074;9.158;2023-01-30T08:51:26;100215.50;;;3.00;78.56
34177;BME280;20450;49.074;9.158;2023-01-30T08:53:53;100204.28;;;2.96;78.22
34177;BME280;20450;49.074;9.158;2023-01-30T08:56:20;100197.81;;;2.99;78.50
34177;BME280;20450;49.074;9.158;2023-01-30T08:58:47;100196.91;;;3.08;78.20
34177;BME280;20450;49.074;9.158;2023-01-30T09:01:14;100201.94;;;3.11;77.92
34177;BME280;20450;49.074;9.158;2023-01-30T09:03:41;100204.13;;;3.15;77.85
34177;BME280;20450;49.074;9.158;2023-01-30T09:06:09;100216.00;;;3.21;78.32
34177;BME280;20450;49.074;9.158;2023-01-30T09:08:38;100213.19;;;3.22;77.88
34177;BME280;20450;49.074;9.158;2023-01-30T09:11:05;100205.88;;;3.24;77.71
34177;BME280;20450;49.074;9.158;2023-01-30T09:13:33;100230.41;;;3.28;77.45
34177;BME280;20450;49.074;9.158;2023-01-30T09:16:01;100226.28;;;3.33;77.79
34177;BME280;20450;49.074;9.158;2023-01-30T09:18:28;100219.97;;;3.34;77.55
34177;BME280;20450;49.074;9.158;2023-01-30T09:21:01;100219.81;;;3.36;77.52
34177;BME280;20450;49.074;9.158;2023-01-30T09:23:30;100214.50;;;3.44;77.71
34177;BME280;20450;49.074;9.158;2023-01-30T09:25:58;100208.03;;;3.46;77.39
34177;BME280;20450;49.074;9.158;2023-01-30T09:28:25;100212.06;;;3.50;78.02
34177;BME280;20450;49.074;9.158;2023-01-30T09:30:52;100202.75;;;3.54;77.70
34177;BME280;20450;49.074;9.158;2023-01-30T09:33:22;100206.56;;;3.52;77.79
34177;BME280;20450;49.074;9.158;2023-01-30T09:35:49;100195.25;;;3.58;77.78
34177;BME280;20450;49.074;9.158;2023-01-30T09:38:17;100188.28;;;3.65;77.94
34177;BME280;20450;49.074;9.158;2023-01-30T09:41:03;100188.34;;;3.73;78.60
34177;BME280;20450;49.074;9.158;2023-01-30T09:43:58;100187.56;;;3.80;77.77
34177;BME280;20450;49.074;9.158;2023-01-30T09:46:46;100191.78;;;3.91;78.01
34177;BME280;20450;49.074;9.158;2023-01-30T09:49:33;100172.44;;;3.97;79.91
34177;BME280;20450;49.074;9.158;2023-01-30T09:52:22;100164.78;;;4.02;76.45
34177;BME280;20450;49.074;9.158;2023-01-30T09:55:00;100170.66;;;4.05;76.38
34177;BME280;20450;49.074;9.158;2023-01-30T09:57:42;100169.84;;;4.13;76.71
34177;BME280;20450;49.074;9.158;2023-01-30T10:00:18;100184.72;;;4.16;76.71
34177;BME280;20450;49.074;9.158;2023-01-30T10:02:54;100181.06;;;4.25;77.87
34177;BME280;20450;49.074;9.158;2023-01-30T10:05:37;100182.34;;;4.13;75.96
34177;BME280;20450;49.074;9.158;2023-01-30T10:08:37;100166.66;;;4.09;76.20
34177;BME280;20450;49.074;9.158;2023-01-30T10:11:21;100164.97;;;4.08;76.27
34177;BME280;20450;49.074;9.158;2023-01-30T10:14:15;100161.94;;;4.03;77.02
34177;BME280;20450;49.074;9.158;2023-01-30T10:17:13;100161.28;;;4.01;76.94
34177;BME280;20450;49.074;9.158;2023-01-30T10:19:59;100150.94;;;4.06;76.93
34177;BME280;20450;49.074;9.158;2023-01-30T10:22:52;100155.47;;;4.06;77.09
34177;BME280;20450;49.074;9.158;2023-01-30T10:25:32;100158.44;;;4.03;77.02
34177;BME280;20450;49.074;9.158;2023-01-30T10:28:12;100173.47;;;4.04;77.33
34177;BME280;20450;49.074;9.158;2023-01-30T10:30:57;100181.72;;;4.11;78.30
34177;BME280;20450;49.074;9.158;2023-01-30T10:33:31;100167.03;;;4.23;79.24
34177;BME280;20450;49.074;9.158;2023-01-30T10:36:06;100159.34;;;4.28;78.68
34177;BME280;20450;49.074;9.158;2023-01-30T10:38:39;100144.50;;;4.25;78.39
34177;BME280;20450;49.074;9.158;2023-01-30T10:41:17;100152.34;;;4.27;78.24
34177;BME280;20450;49.074;9.158;2023-01-30T10:43:57;100153.00;;;4.29;78.61
34177;BME280;20450;49.074;9.158;2023-01-30T10:46:42;100152.34;;;4.27;79.02
34177;BME280;20450;49.074;9.158;2023-01-30T10:49:30;100161.03;;;4.29;79.14
34177;BME280;20450;49.074;9.158;2023-01-30T10:52:17;100158.34;;;4.29;79.41
34177;BME280;20450;49.074;9.158;2023-01-30T10:54:59;100163.53;;;4.30;79.92
34177;BME280;20450;49.074;9.158;2023-01-30T10:57:44;100165.03;;;4.25;79.78
34177;BME280;20450;49.074;9.158;2023-01-30T11:00:26;100181.06;;;4.25;80.37
34177;BME280;20450;49.074;9.158;2023-01-30T11:03:09;100183.75;;;4.17;79.46
34177;BME280;20450;49.074;9.158;2023-01-30T11:05:48;100168.66;;;4.07;80.13
34177;BME280;20450;49.074;9.158;2023-01-30T11:08:24;100162.25;;;4.00;80.10
34177;BME280;20450;49.074;9.158;2023-01-30T11:10:54;100166.47;;;4.03;80.18
34177;BME280;20450;49.074;9.158;2023-01-30T11:13:22;100152.72;;;3.98;79.48
34177;BME280;20450;49.074;9.158;2023-01-30T11:15:59;100149.06;;;3.99;79.89
34177;BME280;20450;49.074;9.158;2023-01-30T11:18:32;100146.06;;;4.02;79.93
34177;BME280;20450;49.074;9.158;2023-01-30T11:21:30;100155.78;;;4.03;80.34
34177;BME280;20450;49.074;9.158;2023-01-30T11:24:15;100158.59;;;4.01;80.34
34177;BME280;20450;49.074;9.158;2023-01-30T11:26:44;100167.97;;;4.05;80.86
34177;BME280;20450;49.074;9.158;2023-01-30T11:29:28;100161.13;;;4.03;80.62
34177;BME280;20450;49.074;9.158;2023-01-30T11:32:01;100159.75;;;3.99;80.28
34177;BME280;20450;49.074;9.158;2023-01-30T11:34:31;100167.44;;;4.02;80.02
34177;BME280;20450;49.074;9.158;2023-01-30T11:37:12;100165.94;;;3.99;80.82
34177;BME280;20450;49.074;9.158;2023-01-30T11:50:27;100151.94;;;4.05;80.56
34177;BME280;20450;49.074;9.158;2023-01-30T11:53:04;100140.56;;;4.03;80.27
34177;BME280;20450;49.074;9.158;2023-01-30T11:55:45;100151.63;;;4.08;80.47
34177;BME280;20450;49.074;9.158;2023-01-30T12:14:04;100143.88;;;3.97;80.75
34177;BME280;20450;49.074;9.158;2023-01-30T12:16:51;100146.06;;;4.02;80.36
34177;BME280;20450;49.074;9.158;2023-01-30T12:19:32;100145.72;;;3.97;80.61
34177;BME280;20450;49.074;9.158;2023-01-30T12:22:15;100153.59;;;3.98;80.79
34177;BME280;20450;49.074;9.158;2023-01-30T12:24:56;100142.22;;;3.96;80.78
34177;BME280;20450;49.074;9.158;2023-01-30T12:27:36;100137.03;;;3.95;80.98
34177;BME280;20450;49.074;9.158;2023-01-30T12:41:30;100152.56;;;3.99;81.29
34177;BME280;20450;49.074;9.158;2023-01-30T12:44:21;100161.75;;;3.97;81.44
34177;BME280;20450;49.074;9.158;2023-01-30T12:47:34;100150.22;;;3.96;80.83
34177;BME280;20450;49.074;9.158;2023-01-30T12:50:22;100150.44;;;4.03;80.65
34177;BME280;20450;49.074;9.158;2023-01-30T12:56:13;100129.53;;;3.98;81.18
34177;BME280;20450;49.074;9.158;2023-01-30T12:58:56;100138.38;;;3.99;81.41
34177;BME280;20450;49.074;9.158;2023-01-30T13:01:40;100128.31;;;3.93;81.95
34177;BME280;20450;49.074;9.158;2023-01-30T13:04:25;100130.50;;;3.89;81.02
34177;BME280;20450;49.074;9.158;2023-01-30T13:07:11;100131.00;;;3.93;80.75
34177;BME280;20450;49.074;9.158;2023-01-30T13:10:51;100137.66;;;3.89;80.96
34177;BME280;20450;49.074;9.158;2023-01-30T13:13:39;100143.00;;;3.89;81.18
34177;BME280;20450;49.074;9.158;2023-01-30T13:16:23;100142.47;;;3.85;80.66
34177;BME280;20450;49.074;9.158;2023-01-30T13:19:00;100158.16;;;3.80;81.27
34177;BME280;20450;49.074;9.158;2023-01-30T13:21:40;100172.03;;;3.84;81.48
34177;BME280;20450;49.074;9.158;2023-01-30T13:24:20;100174.84;;;3.82;81.49
34177;BME280;20450;49.074;9.158;2023-01-30T13:27:29;100178.84;;;3.78;81.27
34177;BME280;20450;49.074;9.158;2023-01-30T13:31:27;100177.50;;;3.74;81.22
34177;BME280;20450;49.074;9.158;2023-01-30T13:34:03;100196.56;;;3.79;80.99
34177;BME280;20450;49.074;9.158;2023-01-30T13:36:38;100182.09;;;3.90;81.29
34177;BME280;20450;49.074;9.158;2023-01-30T13:52:02;100216.56;;;3.75;82.06
34177;BME280;20450;49.074;9.158;2023-01-30T13:54:45;100224.44;;;3.77;81.77
34177;BME280;20450;49.074;9.158;2023-01-30T13:57:28;100214.13;;;3.82;81.85
34177;BME280;20450;49.074;9.158;2023-01-30T14:00:19;100212.28;;;3.82;81.82
34177;BME280;20450;49.074;9.158;2023-01-30T14:06:13;100215.84;;;3.91;81.64
34177;BME280;20450;49.074;9.158;2023-01-30T14:09:00;100198.66;;;3.93;81.08
34177;BME280;20450;49.074;9.158;2023-01-30T14:11:35;100204.69;;;3.95;81.52
34177;BME280;20450;49.074;9.158;2023-01-30T14:14:19;100200.41;;;4.11;80.62
34177;BME280;20450;49.074;9.158;2023-01-30T14:16:55;100208.13;;;4.22;80.02
34177;BME280;20450;49.074;9.158;2023-01-30T14:19:44;100209.53;;;4.34;80.98
34177;BME280;20450;49.074;9.158;2023-01-30T14:30:36;100221.47;;;4.55;79.08
34177;BME280;20450;49.074;9.158;2023-01-30T14:33:46;100220.50;;;4.64;79.23
34177;BME280;20450;49.074;9.158;2023-01-30T14:36:35;100229.19;;;4.58;78.98
34177;BME280;20450;49.074;9.158;2023-01-30T14:39:34;100223.16;;;4.56;78.89
34177;BME280;20450;49.074;9.158;2023-01-30T14:42:23;100226.19;;;4.61;79.09
34177;BME280;20450;49.074;9.158;2023-01-30T14:45:04;100232.66;;;4.59;78.82
34177;BME280;20450;49.074;9.158;2023-01-30T14:51:48;100245.41;;;4.57;78.74